Time;durP1;ratioP1;P1;durP2;ratioP2;P2;SDS_P1;SDS_P2;PMS_P1;PMS_P2;Temp;Humidity;BMP_temperature;BMP_pressure;BME280_temperature;BME280_humidity;BME280_pressure;Samples;Min_cycle;Max_cycle;Signal;HPM_P1;HPM_P2
2022/04/15 00:02:40;;;;;;;20.47;17.80;;;11.40;1.00;;;;;;6304703;22;20516;-83
2022/04/15 00:07:50;;;;;;;20.83;18.73;;;11.40;1.00;;;;;;6307672;22;20391;-83
2022/04/15 00:10:17;;;;;;;21.50;19.20;;;11.30;1.00;;;;;;6295655;22;20434;-82
2022/04/15 00:12:45;;;;;;;23.47;18.40;;;11.30;1.00;;;;;;6302771;22;20777;-82
2022/04/15 00:15:12;;;;;;;19.70;17.63;;;11.30;1.00;;;;;;6281193;22;20539;-81
2022/04/15 00:17:41;;;;;;;21.53;19.23;;;11.20;1.00;;;;;;6293965;22;20383;-82
2022/04/15 00:20:11;;;;;;;21.77;19.60;;;11.20;1.00;;;;;;6308657;22;20394;-82
2022/04/15 00:22:40;;;;;;;22.83;20.40;;;11.20;1.00;;;;;;6305823;22;20398;-82
2022/04/15 00:25:10;;;;;;;21.17;18.80;;;11.20;1.00;;;;;;6308720;22;20401;-82
2022/04/15 00:27:37;;;;;;;23.30;19.93;;;11.10;1.00;;;;;;6309038;22;20429;-81
2022/04/15 00:30:10;;;;;;;22.60;20.30;;;11.10;1.00;;;;;;6309524;22;20445;-82
2022/04/15 00:32:41;;;;;;;23.47;20.93;;;11.10;1.00;;;;;;6301211;22;21078;-82
2022/04/15 00:35:11;;;;;;;22.60;20.20;;;11.10;1.00;;;;;;6305623;22;20386;-82
2022/04/15 00:37:40;;;;;;;24.60;18.80;;;11.10;1.00;;;;;;6316691;22;20462;-82
2022/04/15 00:42:40;;;;;;;20.03;18.03;;;11.10;1.00;;;;;;6334696;22;20781;-83
2022/04/15 00:45:10;;;;;;;22.03;19.73;;;11.20;1.00;;;;;;6323099;22;20411;-82
2022/04/15 00:47:51;;;;;;;20.00;18.00;;;11.20;1.00;;;;;;6337591;22;20389;-81
2022/04/15 00:50:29;;;;;;;18.80;16.80;;;11.20;1.00;;;;;;6336233;22;20447;-83
2022/04/15 00:53:06;;;;;;;18.70;16.70;;;11.20;1.00;;;;;;6333420;22;20436;-81
2022/04/15 00:55:51;;;;;;;18.60;16.70;;;11.20;1.00;;;;;;6325374;22;20415;-80
2022/04/15 00:58:31;;;;;;;19.30;17.30;;;11.20;1.00;;;;;;6329831;22;20409;-83
2022/04/15 01:01:09;;;;;;;16.00;14.37;;;11.30;1.00;;;;;;6324659;22;20394;-93
2022/04/15 01:03:51;;;;;;;16.93;14.30;;;11.20;1.00;;;;;;6324100;22;20410;-92
2022/04/15 01:06:38;;;;;;;15.77;13.97;;;11.20;1.00;;;;;;6293143;22;20400;-91
2022/04/15 01:09:20;;;;;;;14.13;12.50;;;11.20;1.00;;;;;;6294860;22;20590;-94
2022/04/15 01:11:51;;;;;;;14.63;12.87;;;11.20;1.00;;;;;;6290124;22;20568;-91
2022/04/15 01:14:40;;;;;;;15.23;13.30;;;11.20;1.00;;;;;;6284955;22;20387;-92
2022/04/15 01:17:10;;;;;;;15.20;12.80;;;11.20;1.00;;;;;;6302894;22;20507;-92
2022/04/15 01:20:10;;;;;;;14.70;13.20;;;11.10;1.00;;;;;;6307554;22;20490;-92
2022/04/15 01:26:09;;;;;;;14.03;12.53;;;11.10;1.00;;;;;;6104228;23;20383;-92
2022/04/15 01:34:30;;;;;;;15.23;11.00;;;11.00;1.00;;;;;;6154251;23;20456;-92
2022/04/15 01:40:32;;;;;;;16.23;11.87;;;10.90;1.00;;;;;;6163084;23;20521;-92
2022/04/15 01:43:09;;;;;;;18.50;12.80;;;10.80;1.00;;;;;;6194892;23;20442;-93
2022/04/15 01:45:50;;;;;;;14.17;11.47;;;10.80;1.00;;;;;;6206470;22;20421;-93
2022/04/15 01:48:31;;;;;;;13.10;11.03;;;10.80;1.00;;;;;;6192309;22;20454;-83
2022/04/15 01:51:00;;;;;;;13.20;10.63;;;10.70;1.00;;;;;;6312545;22;20399;-82
2022/04/15 01:53:29;;;;;;;12.70;10.17;;;10.70;1.00;;;;;;6311975;22;20378;-82
2022/04/15 01:56:00;;;;;;;16.63;10.20;;;10.60;1.00;;;;;;6313913;22;20420;-83
2022/04/15 01:58:31;;;;;;;10.83;9.57;;;10.40;1.00;;;;;;6310477;22;20405;-81
2022/04/15 02:00:58;;;;;;;10.17;9.10;;;10.30;1.00;;;;;;6304329;22;20500;-82
2022/04/15 02:04:01;;;;;;;11.33;9.37;;;10.20;1.00;;;;;;6314580;22;20401;-81
2022/04/15 02:06:27;;;;;;;14.20;10.40;;;10.00;1.00;;;;;;6181447;23;20413;-82
2022/04/15 02:09:00;;;;;;;10.37;9.27;;;9.90;1.00;;;;;;6277141;22;20464;-83
2022/04/15 02:11:31;;;;;;;10.50;9.30;;;9.80;1.00;;;;;;6310429;22;20459;-82
2022/04/15 02:14:00;;;;;;;12.70;10.77;;;9.80;1.00;;;;;;6312771;22;21301;-82
2022/04/15 02:16:30;;;;;;;11.50;9.80;;;9.70;1.00;;;;;;6313038;22;20254;-83
2022/04/15 02:19:01;;;;;;;12.00;10.03;;;9.60;1.00;;;;;;6321417;22;20888;-82
2022/04/15 02:21:28;;;;;;;12.90;10.30;;;9.60;1.00;;;;;;6248437;22;20530;-80
2022/04/15 02:24:22;;;;;;;;;;;;;;;;;;;;;
2022/04/15 02:26:50;;;;;;;13.33;9.90;;;9.50;1.00;;;;;;6244613;22;50692;-82
2022/04/15 02:29:22;;;;;;;12.00;10.27;;;9.50;1.00;;;;;;6253138;22;20430;-83
2022/04/15 02:31:59;;;;;;;10.87;9.80;;;9.60;1.00;;;;;;6311911;22;20454;-82
2022/04/15 02:34:30;;;;;;;11.53;10.33;;;9.60;1.00;;;;;;6320688;22;20385;-81
2022/04/15 02:37:00;;;;;;;10.20;9.20;;;9.60;1.00;;;;;;6324559;22;20402;-83
2022/04/15 02:39:42;;;;;;;;;;;;;;;;;;;;;
2022/04/15 02:42:09;;;;;;;10.57;9.50;;;9.70;1.00;;;;;;6285345;22;41079;-82
2022/04/15 02:44:50;;;;;;;11.20;10.10;;;9.70;1.00;;;;;;6310566;22;20206;-82
2022/04/15 02:47:32;;;;;;;16.47;9.30;;;9.60;1.00;;;;;;6301255;22;20621;-80
2022/04/15 02:50:03;;;;;;;10.50;9.30;;;9.60;1.00;;;;;;6308204;22;20392;-82
2022/04/15 02:52:29;;;;;;;10.43;9.07;;;9.50;1.00;;;;;;6305762;22;20419;-83
2022/04/15 02:55:00;;;;;;;10.43;9.20;;;9.40;1.00;;;;;;6313654;22;20394;-83
2022/04/15 02:57:30;;;;;;;11.60;9.80;;;9.30;1.00;;;;;;6299981;22;20481;-83
2022/04/15 03:00:01;;;;;;;11.03;9.93;;;9.40;1.00;;;;;;6286775;22;20407;-83
2022/04/15 03:02:32;;;;;;;11.30;10.20;;;9.40;1.00;;;;;;6265317;22;20387;-82
2022/04/15 03:05:01;;;;;;;11.90;10.03;;;9.50;1.00;;;;;;6287807;22;20387;-84
2022/04/15 03:07:31;;;;;;;11.80;9.80;;;9.50;1.00;;;;;;6266911;22;20390;-84
2022/04/15 03:10:01;;;;;;;11.60;9.87;;;9.50;1.00;;;;;;6288542;22;20370;-85
2022/04/15 03:12:29;;;;;;;10.27;9.10;;;9.50;1.00;;;;;;6313062;22;20387;-83
2022/04/15 03:15:01;;;;;;;9.90;8.70;;;9.50;1.00;;;;;;6313142;22;20401;-84
2022/04/15 03:17:34;;;;;;;12.07;9.90;;;9.50;1.00;;;;;;6284584;22;20260;-82
2022/04/15 03:20:13;;;;;;;10.87;9.33;;;9.50;1.00;;;;;;6286480;22;21088;-81
2022/04/15 03:22:54;;;;;;;10.67;9.57;;;9.50;1.00;;;;;;6255198;22;20434;-81
2022/04/15 03:25:21;;;;;;;11.63;9.10;;;9.50;1.00;;;;;;6290892;22;20838;-82
2022/04/15 03:27:53;;;;;;;10.27;8.53;;;9.50;1.00;;;;;;6302201;22;20301;-82
2022/04/15 03:30:35;;;;;;;14.10;9.40;;;9.50;1.00;;;;;;6284081;22;20401;-82
2022/04/15 03:33:03;;;;;;;12.33;9.53;;;9.50;1.00;;;;;;6312094;22;20469;-83
2022/04/15 03:35:36;;;;;;;9.68;8.68;;;9.50;1.00;;;;;;6291266;22;20413;-82
2022/04/15 03:38:04;;;;;;;11.00;9.20;;;9.40;1.00;;;;;;6303899;22;20206;-81
2022/04/15 03:40:33;;;;;;;10.00;8.37;;;9.40;1.00;;;;;;6304734;22;20391;-82
2022/04/15 03:42:59;;;;;;;16.23;9.57;;;9.40;1.00;;;;;;6306107;22;20438;-81
2022/04/15 03:45:41;;;;;;;12.55;10.35;;;9.40;1.00;;;;;;6318092;22;20397;-82
2022/04/15 03:51:15;;;;;;;11.45;10.15;;;9.40;1.00;;;;;;6292454;22;20441;-82
2022/04/15 03:53:43;;;;;;;15.00;10.35;;;9.40;1.00;;;;;;6297722;22;20209;-83
2022/04/15 03:56:13;;;;;;;10.77;9.60;;;9.40;1.00;;;;;;6301753;22;20398;-83
2022/04/15 03:58:45;;;;;;;11.93;10.00;;;9.40;1.00;;;;;;6314221;22;20266;-82
2022/04/15 04:01:13;;;;;;;11.33;10.10;;;9.40;1.00;;;;;;6273064;22;20408;-83
2022/04/15 04:03:41;;;;;;;11.68;9.98;;;9.40;1.00;;;;;;6282408;22;20526;-83
2022/04/15 04:06:16;;;;;;;12.40;9.73;;;9.50;1.00;;;;;;6302671;22;20266;-83
2022/04/15 04:08:49;;;;;;;12.57;10.43;;;9.50;1.00;;;;;;6260129;22;20537;-82
2022/04/15 04:11:16;;;;;;;10.80;9.70;;;9.50;1.00;;;;;;6258403;22;20837;-83
2022/04/15 04:13:43;;;;;;;13.75;10.20;;;9.40;1.00;;;;;;6293943;22;20434;-81
2022/04/15 04:16:24;;;;;;;;;;;;;;;;;;;;;
2022/04/15 04:30:13;;;;;;;13.90;11.00;;;9.40;1.00;;;;;;6106455;22;20927;-80
2022/04/15 04:32:49;;;;;;;12.47;10.20;;;9.40;1.00;;;;;;6186797;23;20408;-84
2022/04/15 04:35:26;;;;;;;11.03;9.93;;;9.40;1.00;;;;;;6306980;22;20993;-83
2022/04/15 04:38:07;;;;;;;11.98;10.25;;;9.40;1.00;;;;;;6293926;22;20456;-84
2022/04/15 04:40:37;;;;;;;12.87;10.50;;;9.50;1.00;;;;;;6330160;22;20421;-84
2022/04/15 04:43:07;;;;;;;14.68;10.73;;;9.50;1.00;;;;;;6330008;22;20374;-82
2022/04/15 04:45:44;;;;;;;11.33;9.93;;;9.50;1.00;;;;;;6324690;22;20251;-83
2022/04/15 04:48:17;;;;;;;12.03;10.77;;;9.50;1.00;;;;;;6321013;22;20443;-80
2022/04/15 04:50:47;;;;;;;13.80;10.80;;;9.50;1.00;;;;;;6324600;22;20400;-84
2022/04/15 04:53:14;;;;;;;12.60;11.30;;;9.50;1.00;;;;;;6320803;22;20208;-83
2022/04/15 04:55:41;;;;;;;12.15;10.88;;;9.40;1.00;;;;;;6314146;22;20447;-83
2022/04/15 04:58:07;;;;;;;12.03;10.50;;;9.40;1.00;;;;;;6313888;22;20218;-82
2022/04/15 05:00:35;;;;;;;12.70;11.40;;;9.40;1.00;;;;;;6313903;22;20388;-84
2022/04/15 05:03:07;;;;;;;15.35;11.40;;;9.40;1.00;;;;;;6322016;22;20471;-83
2022/04/15 05:05:37;;;;;;;12.07;9.93;;;9.40;1.00;;;;;;6283801;22;20319;-82
2022/04/15 05:08:08;;;;;;;12.93;10.83;;;9.40;1.00;;;;;;6309936;22;20211;-83
2022/04/15 05:10:37;;;;;;;12.27;10.50;;;9.50;1.00;;;;;;6270095;22;21647;-80
2022/04/15 05:13:14;;;;;;;12.03;10.77;;;9.50;1.00;;;;;;6313450;22;20394;-83
2022/04/15 05:15:45;;;;;;;12.53;11.00;;;9.60;1.00;;;;;;6302002;22;20392;-82
2022/04/15 05:18:16;;;;;;;12.53;10.93;;;9.60;1.00;;;;;;6280065;22;20423;-82
2022/04/15 05:20:45;;;;;;;11.37;9.80;;;9.60;1.00;;;;;;6308271;22;20424;-83
2022/04/15 05:23:15;;;;;;;12.63;10.37;;;9.60;1.00;;;;;;6313474;22;20404;-82
2022/04/15 05:25:44;;;;;;;13.73;12.20;;;9.70;1.00;;;;;;6314482;22;20382;-83
2022/04/15 05:28:20;;;;;;;13.80;10.07;;;9.70;1.00;;;;;;6316681;22;20783;-82
2022/04/15 05:30:47;;;;;;;12.23;10.75;;;9.70;1.00;;;;;;6313169;22;21181;-81
2022/04/15 05:33:16;;;;;;;13.87;10.70;;;9.70;1.00;;;;;;6297234;22;20201;-82
2022/04/15 05:35:43;;;;;;;12.00;10.30;;;9.80;1.00;;;;;;6293613;22;20430;-82
2022/04/15 05:38:15;;;;;;;10.97;9.87;;;9.80;1.00;;;;;;6310912;22;20480;-80
2022/04/15 05:40:41;;;;;;;10.13;9.07;;;9.80;1.00;;;;;;6315548;22;21418;-81
2022/04/15 05:43:14;;;;;;;13.47;9.87;;;9.80;1.00;;;;;;6310665;22;20496;-82
2022/04/15 05:45:45;;;;;;;12.30;11.00;;;9.80;1.00;;;;;;6303936;22;20394;-82
2022/04/15 05:48:16;;;;;;;11.37;10.10;;;9.80;1.00;;;;;;6295865;22;20396;-81
2022/04/15 05:50:44;;;;;;;13.33;10.40;;;9.90;1.00;;;;;;6316485;22;20367;-84
2022/04/15 05:53:15;;;;;;;12.73;10.33;;;9.90;1.00;;;;;;6317880;22;20391;-81
2022/04/15 05:55:42;;;;;;;11.23;9.57;;;9.90;1.00;;;;;;6318780;22;20416;-82
2022/04/15 05:58:10;;;;;;;10.47;9.43;;;9.90;1.00;;;;;;6313238;22;20402;-82
2022/04/15 06:00:45;;;;;;;15.23;10.30;;;9.90;1.00;;;;;;6319501;22;20393;-83
2022/04/15 06:03:35;;;;;;;10.27;9.27;;;10.00;1.00;;;;;;6316925;22;20603;-82
2022/04/15 06:06:06;;;;;;;10.63;8.80;;;10.00;1.00;;;;;;6291083;22;20384;-83
2022/04/15 06:11:23;;;;;;;11.13;9.17;;;10.00;1.00;;;;;;6311775;22;20420;-81
2022/04/15 06:13:51;;;;;;;12.37;9.33;;;10.00;1.00;;;;;;6296274;22;20441;-82
2022/04/15 06:16:19;;;;;;;16.67;10.60;;;9.90;1.00;;;;;;6312278;22;20442;-81
2022/04/15 06:18:55;;;;;;;13.47;9.30;;;10.00;1.00;;;;;;6302375;22;20480;-82
2022/04/15 06:21:27;;;;;;;11.83;9.33;;;10.10;1.00;;;;;;6318485;22;20415;-84
2022/04/15 06:23:55;;;;;;;11.87;9.40;;;10.10;1.00;;;;;;6310985;22;20561;-84
2022/04/15 06:26:26;;;;;;;9.63;8.43;;;10.20;1.00;;;;;;6302224;22;20391;-83
2022/04/15 06:28:56;;;;;;;10.80;8.70;;;10.20;1.00;;;;;;6322436;22;20401;-80
2022/04/15 06:31:25;;;;;;;11.67;9.20;;;10.40;1.00;;;;;;6316783;22;20440;-83
2022/04/15 06:33:57;;;;;;;9.93;8.93;;;10.40;1.00;;;;;;6317595;22;20426;-83
2022/04/15 06:36:25;;;;;;;10.97;9.87;;;10.40;1.00;;;;;;6322408;22;20405;-83
2022/04/15 06:38:56;;;;;;;11.60;9.47;;;10.30;1.00;;;;;;6322541;22;20425;-82
2022/04/15 06:41:26;;;;;;;9.33;8.43;;;10.20;1.00;;;;;;6321849;22;20399;-84
2022/04/15 06:43:56;;;;;;;12.33;10.17;;;10.20;1.00;;;;;;6320430;22;20385;-83
2022/04/15 06:46:26;;;;;;;9.97;8.33;;;10.20;1.00;;;;;;6330761;22;20402;-84
2022/04/15 06:48:58;;;;;;;13.87;8.80;;;10.20;1.00;;;;;;6334861;22;20398;-83
2022/04/15 06:51:25;;;;;;;11.83;9.50;;;10.30;1.00;;;;;;6334912;22;20381;-82
2022/04/15 06:53:58;;;;;;;9.37;8.37;;;10.40;1.00;;;;;;6333432;22;20425;-84
2022/04/15 06:56:27;;;;;;;9.10;8.20;;;10.50;1.00;;;;;;6334552;22;20402;-83
2022/04/15 06:58:56;;;;;;;11.30;8.57;;;10.40;1.00;;;;;;6331036;22;20430;-83
2022/04/15 07:01:26;;;;;;;9.97;8.93;;;10.50;1.00;;;;;;6331939;22;20378;-84
2022/04/15 07:03:58;;;;;;;9.77;8.30;;;10.50;1.00;;;;;;6332056;22;20442;-84
2022/04/15 07:06:27;;;;;;;11.10;8.93;;;10.60;1.00;;;;;;6331950;22;20446;-84
2022/04/15 07:09:06;;;;;;;9.93;8.70;;;10.70;1.00;;;;;;6332143;22;20408;-84
2022/04/15 07:11:36;;;;;;;11.70;8.73;;;10.70;1.00;;;;;;6329328;22;20395;-82
2022/04/15 07:14:05;;;;;;;9.77;8.77;;;10.80;1.00;;;;;;6332189;22;20386;-82
2022/04/15 07:16:55;;;;;;;9.10;8.10;;;10.80;1.00;;;;;;6330467;22;20442;-84
2022/04/15 07:19:27;;;;;;;12.10;8.87;;;10.80;1.00;;;;;;6316254;22;20402;-84
2022/04/15 07:21:56;;;;;;;9.83;8.83;;;10.80;1.00;;;;;;6330633;22;20391;-82
2022/04/15 07:24:27;;;;;;;11.63;9.23;;;10.70;1.00;;;;;;6331240;22;20395;-83
2022/04/15 07:26:56;;;;;;;10.07;8.20;;;10.70;1.00;;;;;;6331448;22;20414;-83
2022/04/15 07:29:26;;;;;;;13.50;8.83;;;10.70;1.00;;;;;;6330896;22;20409;-82
2022/04/15 07:32:27;;;;;;;9.77;8.60;;;10.70;1.00;;;;;;6323141;22;20370;-85
2022/04/15 07:34:57;;;;;;;10.53;8.50;;;10.70;1.00;;;;;;6327966;22;20458;-84
2022/04/15 07:37:26;;;;;;;10.13;8.97;;;10.70;1.00;;;;;;6329997;22;20375;-83
2022/04/15 07:39:56;;;;;;;10.77;8.87;;;10.60;1.00;;;;;;6329508;22;20404;-82
2022/04/15 07:42:28;;;;;;;10.77;9.05;;;10.50;1.00;;;;;;6331023;22;20382;-83
2022/04/15 07:45:16;;;;;;;9.63;8.63;;;10.40;1.00;;;;;;6330533;22;20732;-84
2022/04/15 07:47:47;;;;;;;9.87;8.87;;;10.30;1.00;;;;;;6315675;22;20413;-83
2022/04/15 07:50:21;;;;;;;9.40;8.33;;;10.30;1.00;;;;;;6329660;22;20394;-82
2022/04/15 07:55:35;;;;;;;10.33;8.17;;;10.40;1.00;;;;;;6275703;22;20198;-79
2022/04/15 07:58:07;;;;;;;11.47;8.27;;;10.40;1.00;;;;;;6325750;22;20394;-78
2022/04/15 08:00:45;;;;;;;10.70;8.43;;;10.40;1.00;;;;;;6325693;22;20430;-77
2022/04/15 08:03:20;;;;;;;10.90;9.20;;;10.40;1.00;;;;;;6321472;22;20400;-79
2022/04/15 08:05:49;;;;;;;10.50;8.07;;;10.50;1.00;;;;;;6307237;22;20504;-79
2022/04/15 08:08:16;;;;;;;10.87;9.27;;;10.50;1.00;;;;;;6301766;22;20515;-82
2022/04/15 08:10:42;;;;;;;10.17;8.13;;;10.60;1.00;;;;;;6301158;22;20470;-80
2022/04/15 08:13:16;;;;;;;13.40;8.63;;;10.70;1.00;;;;;;6316785;22;20429;-81
2022/04/15 08:15:43;;;;;;;9.90;8.73;;;10.80;1.00;;;;;;6310209;22;20475;-79
2022/04/15 08:18:25;;;;;;;10.60;8.40;;;10.70;1.00;;;;;;6317580;22;20390;-80
2022/04/15 08:20:56;;;;;;;12.33;10.30;;;10.80;1.00;;;;;;6314375;22;21270;-79
2022/04/15 08:23:26;;;;;;;11.07;8.00;;;10.80;1.00;;;;;;6314058;22;20410;-80
2022/04/15 08:25:53;;;;;;;12.10;9.20;;;10.80;1.00;;;;;;6306809;22;20504;-82
2022/04/15 08:28:28;;;;;;;10.10;8.10;;;10.70;1.00;;;;;;6306940;22;20797;-82
2022/04/15 08:30:56;;;;;;;11.97;8.40;;;10.70;1.00;;;;;;6312106;22;20404;-79
2022/04/15 08:33:37;;;;;;;;;;;;;;;;;;;;;
2022/04/15 08:36:07;;;;;;;13.23;10.20;;;10.70;1.00;;;;;;6310836;22;50243;-78
2022/04/15 08:38:36;;;;;;;11.27;9.30;;;10.60;1.00;;;;;;6313915;22;20448;-79
2022/04/15 08:41:08;;;;;;;10.70;8.00;;;10.60;1.00;;;;;;6319697;22;21011;-79
2022/04/15 08:43:38;;;;;;;11.70;8.67;;;10.60;1.00;;;;;;6310584;22;20638;-79
2022/04/15 08:46:23;;;;;;;11.47;9.43;;;10.60;1.00;;;;;;6316088;22;20386;-79
2022/04/15 08:49:05;;;;;;;12.23;8.80;;;10.50;1.00;;;;;;6321130;22;20421;-80
2022/04/15 08:51:37;;;;;;;10.37;7.63;;;10.50;1.00;;;;;;6324576;22;20799;-80
2022/04/15 08:54:07;;;;;;;9.77;8.07;;;10.70;1.00;;;;;;6312833;22;20393;-78
2022/04/15 08:56:47;;;;;;;13.47;9.63;;;10.60;1.00;;;;;;6316347;22;20421;-79
2022/04/15 08:59:17;;;;;;;11.47;9.07;;;10.60;1.00;;;;;;6306415;22;20370;-79
2022/04/15 09:01:56;;;;;;;10.40;9.30;;;10.50;1.00;;;;;;6282855;22;20624;-80
2022/04/15 09:04:56;;;;;;;12.57;8.70;;;10.40;1.00;;;;;;6287255;22;20383;-79
2022/04/15 09:07:47;;;;;;;10.03;8.83;;;10.40;1.00;;;;;;6292332;22;20449;-79
2022/04/15 09:15:37;;;;;;;10.50;9.40;;;10.50;1.00;;;;;;6308282;22;20407;-79
2022/04/15 09:18:07;;;;;;;11.40;8.90;;;10.40;1.00;;;;;;6313775;22;20444;-81
2022/04/15 09:20:36;;;;;;;11.07;9.43;;;10.30;1.00;;;;;;6318974;22;20403;-80
2022/04/15 09:23:27;;;;;;;10.40;8.60;;;10.40;1.00;;;;;;6318341;22;20410;-79
2022/04/15 09:25:56;;;;;;;12.57;7.93;;;10.40;1.00;;;;;;6325337;22;20423;-78
2022/04/15 09:28:29;;;;;;;9.20;7.43;;;10.40;1.00;;;;;;6322038;22;20390;-81
2022/04/15 09:31:16;;;;;;;13.00;9.90;;;10.30;1.00;;;;;;6319623;22;20423;-78
2022/04/15 09:33:57;;;;;;;12.23;9.17;;;10.30;1.00;;;;;;6316533;22;20510;-79
2022/04/15 09:36:44;;;;;;;10.10;8.80;;;10.30;1.00;;;;;;6311852;22;20421;-79
2022/04/15 09:41:56;;;;;;;13.87;9.30;;;10.10;1.00;;;;;;6255773;22;20427;-79
2022/04/15 09:44:47;;;;;;;;;;;;;;;;;;;;;
2022/04/15 09:47:18;;;;;;;8.73;7.47;;;10.10;1.00;;;;;;6253114;22;49831;-78
2022/04/15 09:49:47;;;;;;;10.87;8.40;;;10.00;1.00;;;;;;6253914;22;20399;-79
2022/04/15 09:52:25;;;;;;;10.13;9.00;;;10.00;1.00;;;;;;6232103;22;20550;-79
2022/04/15 09:55:07;;;;;;;11.90;9.60;;;10.10;1.00;;;;;;6254042;22;20422;-78
2022/04/15 09:57:36;;;;;;;10.37;9.10;;;10.20;1.00;;;;;;6259073;22;20491;-78
2022/04/15 10:00:18;;;;;;;10.53;9.40;;;10.20;1.00;;;;;;6263087;22;20483;-80
2022/04/15 10:02:49;;;;;;;10.97;8.00;;;10.20;1.00;;;;;;6247130;22;20491;-79
2022/04/15 10:05:38;;;;;;;10.50;8.47;;;10.10;1.00;;;;;;6261008;22;20406;-81
2022/04/15 10:08:26;;;;;;;11.90;8.93;;;10.10;1.00;;;;;;6222946;22;20378;-80
2022/04/15 10:11:10;;;;;;;10.57;9.30;;;10.10;1.00;;;;;;6259078;22;20420;-79
2022/04/15 10:14:06;;;;;;;10.53;8.03;;;10.10;1.00;;;;;;6245963;22;20413;-80
2022/04/15 10:16:35;;;;;;;11.50;8.80;;;10.00;1.00;;;;;;6253094;22;20446;-81
2022/04/15 10:21:38;;;;;;;9.97;8.97;;;10.00;1.00;;;;;;6285501;22;39342;-82
2022/04/15 10:24:25;;;;;;;;;;;;;;;;;;;;;
2022/04/15 10:27:20;;;;;;;10.60;9.50;;;10.00;1.00;;;;;;6314539;22;41719;-79
2022/04/15 10:30:02;;;;;;;8.73;7.83;;;10.10;1.00;;;;;;6304074;22;21523;-80
2022/04/15 10:32:30;;;;;;;10.60;8.17;;;10.00;1.00;;;;;;6315082;22;20414;-79
2022/04/15 10:35:04;;;;;;;9.17;8.27;;;10.00;1.00;;;;;;6298657;22;20390;-82
2022/04/15 10:38:10;;;;;;;11.10;7.93;;;10.00;1.00;;;;;;6312813;22;20449;-80
2022/04/15 10:40:50;;;;;;;10.32;8.27;;;9.90;1.00;;;;;;6310600;22;20461;-79
2022/04/15 10:43:22;;;;;;;10.27;8.47;;;9.90;1.00;;;;;;6309361;22;20215;-79
2022/04/15 10:46:16;;;;;;;9.20;8.20;;;10.00;1.00;;;;;;6301141;22;20412;-78
2022/04/15 10:49:14;;;;;;;9.40;7.47;;;10.00;1.00;;;;;;6303388;22;20402;-80
2022/04/15 10:51:58;;;;;;;9.65;7.60;;;10.00;1.00;;;;;;6286819;22;20401;-79
2022/04/15 10:54:40;;;;;;;12.00;7.77;;;10.00;1.00;;;;;;6319727;22;20204;-79
2022/04/15 10:57:33;;;;;;;10.40;9.17;;;10.00;1.00;;;;;;6306623;22;20446;-80
2022/04/15 11:03:26;;;;;;;7.90;6.77;;;10.10;1.00;;;;;;6309812;22;21545;-77
2022/04/15 11:06:09;;;;;;;7.30;6.40;;;10.30;1.00;;;;;;6312371;22;20426;-79
2022/04/15 11:08:56;;;;;;;8.90;6.57;;;10.40;1.00;;;;;;6322199;22;20392;-77
2022/04/15 11:11:41;;;;;;;7.43;6.33;;;10.40;1.00;;;;;;6317128;22;20385;-78
2022/04/15 11:16:59;;;;;;;5.57;5.00;;;10.40;1.00;;;;;;6311140;22;20418;-76
2022/04/15 11:19:29;;;;;;;5.43;4.40;;;10.50;1.00;;;;;;6294080;22;20437;-79
2022/04/15 11:21:58;;;;;;;6.37;4.70;;;10.40;1.00;;;;;;6300318;22;20508;-79
2022/04/15 11:24:30;;;;;;;4.20;3.70;;;10.40;1.00;;;;;;6304182;22;20374;-79
2022/04/15 11:27:01;;;;;;;5.57;4.70;;;10.40;1.00;;;;;;6318258;22;20406;-80
2022/04/15 11:29:30;;;;;;;4.93;3.63;;;10.50;1.00;;;;;;6306427;22;20389;-81
2022/04/15 11:32:21;;;;;;;4.80;3.97;;;10.50;1.00;;;;;;6282879;22;20395;-80
2022/04/15 11:35:18;;;;;;;6.27;5.00;;;10.40;1.00;;;;;;6290364;22;20406;-82
2022/04/15 11:38:26;;;;;;;5.47;3.90;;;10.30;1.00;;;;;;6313207;22;20422;-82
2022/04/15 11:44:07;;;;;;;5.50;4.53;;;10.20;1.00;;;;;;6315086;22;20445;-82
2022/04/15 11:46:47;;;;;;;6.40;4.97;;;10.20;1.00;;;;;;6323847;22;20378;-83
2022/04/15 11:49:30;;;;;;;7.53;5.17;;;10.30;1.00;;;;;;6298216;22;20436;-77
2022/04/15 11:52:07;;;;;;;5.10;3.87;;;10.40;1.00;;;;;;6244304;22;20434;-77
2022/04/15 11:54:38;;;;;;;5.70;3.50;;;10.40;1.00;;;;;;6242528;22;20458;-77
2022/04/15 11:57:19;;;;;;;4.40;3.10;;;10.50;1.00;;;;;;6253437;22;20457;-77
2022/04/15 12:00:00;;;;;;;6.17;3.83;;;10.50;1.00;;;;;;6323290;22;20520;-78
2022/04/15 12:02:48;;;;;;;5.80;4.10;;;10.50;1.00;;;;;;6297776;22;20410;-75
2022/04/15 12:05:17;;;;;;;5.93;3.80;;;10.60;1.00;;;;;;6297838;22;20401;-77
2022/04/15 12:08:00;;;;;;;4.67;3.27;;;10.80;1.00;;;;;;6287448;22;20581;-78
2022/04/15 12:10:29;;;;;;;5.70;4.00;;;10.80;1.00;;;;;;6291411;22;20920;-75
2022/04/15 12:12:58;;;;;;;3.70;3.20;;;10.90;1.00;;;;;;6277368;22;20422;-76
2022/04/15 12:15:30;;;;;;;4.87;3.93;;;11.00;1.00;;;;;;6274038;22;20407;-77
2022/04/15 12:17:59;;;;;;;21.20;18.23;;;11.10;1.00;;;;;;6249322;22;20408;-77
2022/04/15 12:20:30;;;;;;;7.10;4.80;;;11.00;1.00;;;;;;6276149;22;20382;-75
2022/04/15 12:22:59;;;;;;;5.20;3.23;;;11.00;1.00;;;;;;6277919;22;20601;-77
2022/04/15 12:26:05;;;;;;;5.63;3.60;;;11.00;1.00;;;;;;6275452;22;20399;-77
2022/04/15 12:31:00;;;;;;;4.63;3.83;;;10.70;1.00;;;;;;6187591;22;20443;-76
2022/04/15 12:33:28;;;;;;;5.60;4.10;;;10.70;1.00;;;;;;6237248;22;20415;-78
2022/04/15 12:36:19;;;;;;;5.57;3.70;;;10.80;1.00;;;;;;6241619;22;20394;-79
2022/04/15 12:39:02;;;;;;;4.73;3.90;;;10.90;1.00;;;;;;6247635;22;21760;-79
2022/04/15 12:41:57;;;;;;;5.07;3.83;;;10.80;1.00;;;;;;6228446;22;20641;-77
2022/04/15 12:44:40;;;;;;;4.87;3.87;;;10.80;1.00;;;;;;6225010;22;20394;-77
2022/04/15 12:54:11;;;;;;;4.97;3.70;;;10.80;1.00;;;;;;6059017;23;21423;-79
2022/04/15 13:00:38;;;;;;;6.47;5.00;;;11.00;1.00;;;;;;6101857;22;20495;-78
2022/04/15 13:03:07;;;;;;;4.20;3.10;;;11.20;1.00;;;;;;6225355;22;20419;-78
2022/04/15 13:05:37;;;;;;;4.20;3.50;;;11.40;1.00;;;;;;6281871;22;20432;-78
2022/04/15 13:08:27;;;;;;;5.10;3.83;;;11.70;1.00;;;;;;6280615;22;20395;-78
2022/04/15 13:10:59;;;;;;;5.13;3.80;;;11.90;1.00;;;;;;6268500;22;20396;-78
2022/04/15 13:13:27;;;;;;;5.20;4.00;;;12.40;1.00;;;;;;6281531;22;20479;-78
2022/04/15 13:15:59;;;;;;;4.70;3.13;;;12.80;1.00;;;;;;6276927;22;20424;-77
2022/04/15 13:18:28;;;;;;;3.83;3.30;;;13.00;1.00;;;;;;6241439;22;20416;-78
2022/04/15 13:23:59;;;;;;;;;;;;;;;;;;;;;
2022/04/15 13:26:38;;;;;;;3.20;2.63;;;13.30;1.00;;;;;;6264100;22;41357;-77
2022/04/15 13:32:17;;;;;;;3.27;2.50;;;13.30;1.00;;;;;;6307281;22;40511;-76
2022/04/15 13:34:58;;;;;;;;;;;;;;;;;;;;;
2022/04/15 13:37:28;;;;;;;3.20;2.03;;;13.10;1.00;;;;;;6257829;22;39431;-78
2022/04/15 13:40:08;;;;;;;3.30;2.07;;;13.00;1.00;;;;;;6280759;22;20403;-77
2022/04/15 13:42:58;;;;;;;2.90;1.80;;;13.00;1.00;;;;;;6311223;22;20411;-76
2022/04/15 13:45:39;;;;;;;2.73;1.77;;;13.00;1.00;;;;;;6308954;22;20382;-75
2022/04/15 13:48:18;;;;;;;2.70;1.50;;;12.90;1.00;;;;;;6301660;22;20405;-75
2022/04/15 13:51:19;;;;;;;2.70;1.57;;;12.70;1.00;;;;;;6305335;22;20425;-76
2022/04/15 13:56:43;;;;;;;3.80;2.37;;;12.10;1.00;;;;;;6242432;22;20427;-76
2022/04/15 13:59:11;;;;;;;2.60;1.73;;;11.90;1.00;;;;;;6301224;22;20446;-77
2022/04/15 14:01:44;;;;;;;3.47;2.30;;;11.80;1.00;;;;;;6310336;22;21098;-78
2022/04/15 14:04:18;;;;;;;4.23;2.70;;;11.80;1.00;;;;;;6310497;22;20497;-77
2022/04/15 14:06:57;;;;;;;5.27;3.70;;;11.70;1.00;;;;;;6313212;22;20399;-77
2022/04/15 14:09:26;;;;;;;5.60;4.50;;;11.60;1.00;;;;;;6303467;22;20466;-77
2022/04/15 14:11:58;;;;;;;6.40;5.00;;;11.50;1.00;;;;;;6294247;22;20401;-79
2022/04/15 14:14:37;;;;;;;8.30;6.03;;;11.40;1.00;;;;;;6304597;22;20430;-76
2022/04/15 14:17:09;;;;;;;8.70;6.20;;;11.30;1.00;;;;;;6305631;22;20572;-76
2022/04/15 14:19:37;;;;;;;8.47;6.70;;;11.10;1.00;;;;;;6304814;22;20426;-77
2022/04/15 14:22:08;;;;;;;8.37;7.43;;;11.10;1.00;;;;;;6289215;22;20391;-76
2022/04/15 14:24:39;;;;;;;8.10;6.93;;;11.20;1.00;;;;;;6296380;22;20426;-76
2022/04/15 14:27:06;;;;;;;8.93;6.53;;;11.30;1.00;;;;;;6294549;22;21172;-77
2022/04/15 14:29:38;;;;;;;8.83;6.50;;;11.40;1.00;;;;;;6293994;22;20411;-77
2022/04/15 14:32:09;;;;;;;9.57;7.70;;;11.50;1.00;;;;;;6314203;22;20413;-76
2022/04/15 14:34:40;;;;;;;11.37;7.67;;;11.40;1.00;;;;;;6310662;22;20429;-78
2022/04/15 14:37:09;;;;;;;9.80;8.37;;;11.30;1.00;;;;;;6307227;22;20408;-76
2022/04/15 14:39:38;;;;;;;11.67;7.87;;;11.20;1.00;;;;;;6295353;22;20390;-76
2022/04/15 14:42:08;;;;;;;9.43;8.10;;;11.20;1.00;;;;;;6304227;22;20375;-78
2022/04/15 14:44:40;;;;;;;10.97;8.20;;;11.10;1.00;;;;;;6300615;22;20398;-77
2022/04/15 14:47:08;;;;;;;13.40;10.63;;;11.00;1.00;;;;;;6292935;22;20458;-77
2022/04/15 14:49:42;;;;;;;9.43;8.43;;;11.00;1.00;;;;;;6310385;22;20395;-76
2022/04/15 14:52:09;;;;;;;9.70;8.20;;;11.10;1.00;;;;;;6262865;22;20473;-77
2022/04/15 14:54:39;;;;;;;9.67;7.93;;;11.00;1.00;;;;;;6297114;22;20404;-76
2022/04/15 14:57:10;;;;;;;10.07;8.60;;;11.00;1.00;;;;;;6310078;22;20406;-76
2022/04/15 14:59:38;;;;;;;10.17;8.20;;;10.90;1.00;;;;;;6309086;22;20466;-76